createdAt,value
2022-07-31T00:00:22.085Z,101702.81
2022-07-31T00:02:51.881Z,101696.56
2022-07-31T00:05:21.837Z,101690.28
2022-07-31T00:07:51.920Z,101706.34
2022-07-31T00:10:21.731Z,101701.88
2022-07-31T00:12:54.620Z,101707.22
2022-07-31T00:15:24.725Z,101706.34
2022-07-31T00:17:54.481Z,101704.53
2022-07-31T00:20:24.250Z,101707.22
2022-07-31T00:22:54.963Z,101703.66
2022-07-31T00:25:24.701Z,101701.00
2022-07-31T00:27:57.031Z,101700.97
2022-07-31T00:30:26.968Z,101705.44
2022-07-31T00:32:56.676Z,101699.22
2022-07-31T00:35:26.592Z,101693.00
2022-07-31T00:38:24.785Z,101694.75
2022-07-31T00:40:50.386Z,101690.28
2022-07-31T00:43:22.679Z,101681.38
2022-07-31T00:45:59.141Z,101684.94
2022-07-31T00:48:29.835Z,101681.38
2022-07-31T00:50:59.878Z,101677.78
2022-07-31T00:53:29.615Z,101678.66
2022-07-31T00:55:59.940Z,101672.44
2022-07-31T00:58:32.367Z,101668.00
2022-07-31T01:01:02.111Z,101667.09
2022-07-31T01:03:31.896Z,101668.88
2022-07-31T01:06:01.851Z,101664.34
2022-07-31T01:08:31.786Z,101667.03
2022-07-31T01:11:08.316Z,101659.00
2022-07-31T01:13:49.418Z,101661.66
2022-07-31T01:16:21.249Z,101655.41
2022-07-31T01:18:52.542Z,101655.47
2022-07-31T01:21:30.227Z,101659.88
2022-07-31T01:24:30.084Z,101655.44
2022-07-31T01:27:04.965Z,101650.97
2022-07-31T01:29:43.782Z,101644.69
2022-07-31T01:32:17.840Z,101640.25
2022-07-31T01:34:55.622Z,101645.59
2022-07-31T01:37:30.474Z,101634.00
2022-07-31T01:40:06.284Z,101632.22
2022-07-31T01:42:39.619Z,101633.13
2022-07-31T01:45:14.510Z,101627.78
2022-07-31T01:47:45.944Z,101625.97
2022-07-31T01:50:42.483Z,101623.31
2022-07-31T01:53:06.768Z,101624.22
2022-07-31T01:56:03.796Z,101621.50
2022-07-31T01:58:30.641Z,101619.75
2022-07-31T02:01:05.900Z,101622.38
2022-07-31T02:03:44.510Z,101615.28
2022-07-31T02:06:17.760Z,101615.28
2022-07-31T02:08:49.072Z,101617.06
2022-07-31T02:11:21.658Z,101620.63
2022-07-31T02:13:53.407Z,101622.41
2022-07-31T02:16:27.593Z,101618.84
2022-07-31T02:19:00.248Z,101620.63
2022-07-31T02:21:30.195Z,101618.84
2022-07-31T02:24:00.241Z,101621.50
2022-07-31T02:26:32.231Z,101621.50
2022-07-31T02:29:02.953Z,101622.41
2022-07-31T02:31:37.918Z,101610.81
2022-07-31T02:34:08.049Z,101621.53
2022-07-31T02:36:38.845Z,101610.84
2022-07-31T02:39:09.292Z,101607.25
2022-07-31T02:41:39.361Z,101608.13
2022-07-31T02:44:09.382Z,101600.09
2022-07-31T02:46:42.509Z,101602.78
2022-07-31T02:49:14.023Z,101595.66
2022-07-31T02:51:44.474Z,101593.00
2022-07-31T02:54:16.033Z,101593.91
2022-07-31T02:56:46.823Z,101584.06
2022-07-31T02:59:16.552Z,101591.19
2022-07-31T03:01:48.891Z,101579.63
2022-07-31T03:04:18.673Z,101584.94
2022-07-31T03:06:48.710Z,101583.16
2022-07-31T03:09:18.482Z,101583.16
2022-07-31T03:11:48.232Z,101579.56
2022-07-31T03:14:18.950Z,101581.38
2022-07-31T03:16:52.855Z,101576.94
2022-07-31T03:19:23.912Z,101570.72
2022-07-31T03:21:54.378Z,101568.06
2022-07-31T03:24:24.092Z,101562.72
2022-07-31T03:26:53.821Z,101565.38
2022-07-31T03:29:41.721Z,101557.34
2022-07-31T03:32:15.854Z,101555.56
2022-07-31T03:34:45.557Z,101552.00
2022-07-31T03:37:15.889Z,101552.88
2022-07-31T03:39:45.629Z,101545.75
2022-07-31T03:42:18.884Z,101548.41
2022-07-31T03:44:50.483Z,101542.19
2022-07-31T03:47:22.823Z,101548.41
2022-07-31T03:49:52.744Z,101549.28
2022-07-31T03:52:22.470Z,101545.69
2022-07-31T03:54:52.366Z,101543.88
2022-07-31T03:57:27.002Z,101547.44
2022-07-31T04:00:00.742Z,101559.94
2022-07-31T04:02:33.648Z,101550.09
2022-07-31T04:05:08.069Z,101560.78
2022-07-31T04:07:39.565Z,101548.31
2022-07-31T04:10:10.779Z,101551.88
2022-07-31T04:12:40.510Z,101551.00
2022-07-31T04:15:10.936Z,101546.50
2022-07-31T04:17:43.275Z,101546.50
2022-07-31T04:20:14.104Z,101548.28
2022-07-31T04:22:43.868Z,101546.50
2022-07-31T04:25:13.582Z,101542.94
2022-07-31T04:27:48.200Z,101545.63
2022-07-31T04:30:18.990Z,101546.50
2022-07-31T04:32:51.332Z,101540.25
2022-07-31T04:35:22.300Z,101529.56
2022-07-31T04:37:52.040Z,101534.91
2022-07-31T04:40:21.853Z,101535.81
2022-07-31T04:42:51.568Z,101525.16
2022-07-31T04:45:21.470Z,101526.00
2022-07-31T04:47:53.818Z,101519.78
2022-07-31T04:50:23.793Z,101523.34
2022-07-31T04:52:53.492Z,101514.44
2022-07-31T04:55:24.431Z,101517.13
2022-07-31T04:57:54.140Z,101508.22
2022-07-31T05:00:24.033Z,101510.06
2022-07-31T05:02:56.367Z,101512.75
2022-07-31T05:05:26.267Z,101510.09
2022-07-31T05:07:55.996Z,101504.75
2022-07-31T05:10:38.327Z,101502.09
2022-07-31T05:13:08.020Z,101494.97
2022-07-31T05:15:37.739Z,101498.56
2022-07-31T05:18:10.473Z,101495.91
2022-07-31T05:20:40.221Z,101492.34
2022-07-31T05:23:09.892Z,101490.56
2022-07-31T05:25:39.610Z,101486.13
2022-07-31T05:28:09.856Z,101483.47
2022-07-31T05:30:39.888Z,101488.75
2022-07-31T05:33:12.221Z,101488.75
2022-07-31T05:35:43.645Z,101491.47
2022-07-31T05:38:13.339Z,101483.47
2022-07-31T05:40:43.055Z,101487.06
2022-07-31T05:43:13.337Z,101492.41
2022-07-31T05:45:43.080Z,101480.88
2022-07-31T05:48:15.426Z,101483.59
2022-07-31T05:50:45.775Z,101472.03
2022-07-31T05:53:16.152Z,101480.03
2022-07-31T05:55:46.604Z,101474.72
2022-07-31T05:58:17.277Z,101464.91
2022-07-31T06:00:48.582Z,101471.16
2022-07-31T06:03:27.970Z,101460.47
2022-07-31T06:05:58.618Z,101464.94
2022-07-31T06:08:29.253Z,101460.50
2022-07-31T06:10:59.310Z,101469.41
2022-07-31T06:13:30.385Z,101468.50
2022-07-31T06:16:00.124Z,101469.41
2022-07-31T06:18:32.443Z,101476.56
2022-07-31T06:21:02.716Z,101473.88
2022-07-31T06:23:32.526Z,101463.16
2022-07-31T06:26:02.562Z,101463.16
2022-07-31T06:28:48.489Z,101460.47
2022-07-31T06:31:20.562Z,101453.34
2022-07-31T06:33:53.444Z,101461.41
2022-07-31T06:36:23.740Z,101454.25
2022-07-31T06:38:53.451Z,101461.41
2022-07-31T06:41:35.619Z,101454.25
2022-07-31T06:44:05.893Z,101453.38
2022-07-31T06:46:35.620Z,101457.81
2022-07-31T06:49:09.089Z,101443.53
2022-07-31T06:51:39.191Z,101439.97
2022-07-31T06:54:11.505Z,101441.72
2022-07-31T06:56:42.127Z,101431.88
2022-07-31T06:59:11.929Z,101430.97
2022-07-31T07:01:41.723Z,101438.06
2022-07-31T07:04:14.241Z,101436.28
2022-07-31T07:06:44.007Z,101435.34
2022-07-31T07:09:13.778Z,101437.13
2022-07-31T07:11:43.622Z,101436.25
2022-07-31T07:14:13.421Z,101433.53
2022-07-31T07:16:43.350Z,101429.09
2022-07-31T07:19:15.660Z,101430.84
2022-07-31T07:21:45.382Z,101428.19
2022-07-31T07:24:15.129Z,101432.63
2022-07-31T07:26:44.861Z,101437.09
2022-07-31T07:29:14.606Z,101425.44
2022-07-31T07:31:44.363Z,101429.91
2022-07-31T07:34:16.671Z,101420.97
2022-07-31T07:36:46.399Z,101423.72
2022-07-31T07:39:16.126Z,101426.31
2022-07-31T07:41:45.917Z,101420.94
2022-07-31T07:44:15.632Z,101427.22
2022-07-31T07:46:45.435Z,101421.88
2022-07-31T07:49:17.896Z,101424.56
2022-07-31T07:51:58.801Z,101421.84
2022-07-31T07:54:37.385Z,101424.53
2022-07-31T07:57:07.121Z,101423.59
2022-07-31T07:59:36.847Z,101425.41
2022-07-31T08:02:06.950Z,101419.16
2022-07-31T08:04:39.579Z,101429.84
2022-07-31T08:07:09.420Z,101429.78
2022-07-31T08:09:40.210Z,101419.06
2022-07-31T08:12:10.347Z,101419.06
2022-07-31T08:14:40.072Z,101418.22
2022-07-31T08:17:14.249Z,101420.88
2022-07-31T08:19:50.935Z,101433.34
2022-07-31T08:22:21.099Z,101430.69
2022-07-31T08:24:50.829Z,101425.31
2022-07-31T08:27:39.439Z,101428.00
2022-07-31T08:30:11.985Z,101424.44
2022-07-31T08:32:41.992Z,101431.63
2022-07-31T08:35:15.029Z,101427.19
2022-07-31T08:38:01.629Z,101430.78
2022-07-31T08:40:42.688Z,101433.44
2022-07-31T08:44:00.259Z,101426.31
2022-07-31T08:46:05.445Z,101433.44
2022-07-31T08:48:35.963Z,101421.81
2022-07-31T08:51:09.623Z,101427.22
2022-07-31T08:53:40.014Z,101428.97
2022-07-31T08:56:12.064Z,101427.22
2022-07-31T08:58:41.935Z,101424.56
2022-07-31T09:01:14.170Z,101421.84
2022-07-31T09:03:43.934Z,101421.84
2022-07-31T09:06:16.368Z,101425.47
2022-07-31T09:08:46.261Z,101425.44
2022-07-31T09:11:18.764Z,101419.22
2022-07-31T09:14:14.318Z,101417.44
2022-07-31T09:16:51.769Z,101419.25
2022-07-31T09:19:52.351Z,101420.16
2022-07-31T09:22:22.654Z,101415.69
2022-07-31T09:24:52.491Z,101413.91
2022-07-31T09:27:22.492Z,101409.41
2022-07-31T09:29:52.955Z,101401.38
2022-07-31T09:32:23.999Z,101399.63
2022-07-31T09:34:53.696Z,101399.63
2022-07-31T09:37:28.925Z,101399.63
2022-07-31T09:39:59.282Z,101396.03
2022-07-31T09:42:39.447Z,101403.16
2022-07-31T09:45:23.138Z,101390.69
2022-07-31T09:48:08.337Z,101396.06
2022-07-31T09:50:38.225Z,101387.13
2022-07-31T09:53:10.548Z,101396.06
2022-07-31T09:55:40.276Z,101393.41
2022-07-31T09:58:09.995Z,101385.34
2022-07-31T10:00:40.492Z,101391.63
2022-07-31T10:03:10.915Z,101386.25
2022-07-31T10:05:40.740Z,101386.25
2022-07-31T10:08:14.915Z,101383.56
2022-07-31T10:10:46.795Z,101379.97
2022-07-31T10:13:18.418Z,101377.28
2022-07-31T10:15:50.061Z,101377.31
2022-07-31T10:18:36.043Z,101382.66
2022-07-31T10:21:09.281Z,101379.13
2022-07-31T10:23:44.032Z,101373.78
2022-07-31T10:26:14.202Z,101379.19
2022-07-31T10:28:44.545Z,101370.28
2022-07-31T10:31:15.676Z,101373.84
2022-07-31T10:33:47.718Z,101368.50
2022-07-31T10:36:22.636Z,101364.94
2022-07-31T10:39:04.346Z,101367.63
2022-07-31T10:41:49.797Z,101358.69
2022-07-31T10:44:26.106Z,101364.94
2022-07-31T10:46:56.008Z,101358.69
2022-07-31T10:49:44.114Z,101358.75
2022-07-31T10:52:15.497Z,101353.41
2022-07-31T10:54:49.782Z,101344.47
2022-07-31T10:57:26.452Z,101344.50
2022-07-31T10:59:56.881Z,101344.50
2022-07-31T11:02:34.059Z,101344.50
2022-07-31T11:05:11.790Z,101335.59
2022-07-31T11:07:43.000Z,101333.81
2022-07-31T11:10:21.004Z,101332.06
2022-07-31T11:13:02.192Z,101328.53
2022-07-31T11:15:31.979Z,101323.16
2022-07-31T11:18:25.195Z,101331.19
2022-07-31T11:21:17.394Z,101325.84
2022-07-31T11:24:02.723Z,101324.94
2022-07-31T11:26:41.941Z,101320.47
2022-07-31T11:29:59.846Z,101314.25
2022-07-31T11:32:15.501Z,101318.75
2022-07-31T11:34:53.711Z,101315.16
2022-07-31T11:37:43.329Z,101308.91
2022-07-31T11:40:17.445Z,101309.78
2022-07-31T11:43:10.320Z,101308.00
2022-07-31T11:45:49.912Z,101303.56
2022-07-31T11:48:20.854Z,101301.75
2022-07-31T11:50:52.040Z,101305.31
2022-07-31T11:53:24.066Z,101304.44
2022-07-31T11:56:04.240Z,101305.34
2022-07-31T11:58:36.775Z,101295.50
2022-07-31T12:01:08.087Z,101291.09
2022-07-31T12:03:40.133Z,101298.19
2022-07-31T12:06:11.674Z,101292.88
2022-07-31T12:08:42.978Z,101289.28
2022-07-31T12:11:14.420Z,101284.84
2022-07-31T12:13:48.829Z,101285.75
2022-07-31T12:16:19.213Z,101283.97
2022-07-31T12:18:50.764Z,101279.56
2022-07-31T12:21:21.353Z,101277.75
2022-07-31T12:23:53.326Z,101267.97
2022-07-31T12:26:27.473Z,101267.91
2022-07-31T12:29:05.213Z,101264.38
2022-07-31T12:31:47.836Z,101269.75
2022-07-31T12:34:29.436Z,101264.38
2022-07-31T12:37:04.124Z,101267.94
2022-07-31T12:39:50.766Z,101267.91
2022-07-31T12:42:30.743Z,101259.88
2022-07-31T12:45:18.270Z,101267.03
2022-07-31T12:47:52.376Z,101266.13
2022-07-31T12:50:22.577Z,101270.59
2022-07-31T12:52:52.447Z,101274.16
2022-07-31T12:55:22.659Z,101269.69
2022-07-31T12:57:52.526Z,101261.66
2022-07-31T13:00:26.977Z,101250.94
2022-07-31T13:02:58.161Z,101257.16
2022-07-31T13:05:29.651Z,101250.91
2022-07-31T13:07:59.802Z,101246.47
2022-07-31T13:10:32.309Z,101256.28
2022-07-31T13:13:02.350Z,101258.06
2022-07-31T13:15:34.672Z,101247.38
2022-07-31T13:18:05.203Z,101249.09
2022-07-31T13:20:35.129Z,101249.06
2022-07-31T13:23:05.393Z,101252.59
2022-07-31T13:25:35.253Z,101245.53
2022-07-31T13:28:04.968Z,101250.88
2022-07-31T13:30:37.371Z,101250.00
2022-07-31T13:33:07.253Z,101239.22
2022-07-31T13:35:37.024Z,101243.66
2022-07-31T13:38:06.897Z,101246.28
2022-07-31T13:40:49.062Z,101249.88
2022-07-31T13:43:18.863Z,101241.81
2022-07-31T13:45:51.658Z,101238.25
2022-07-31T13:48:21.438Z,101238.22
2022-07-31T13:50:51.122Z,101245.38
2022-07-31T13:53:20.869Z,101238.28
2022-07-31T13:55:50.624Z,101244.59
2022-07-31T13:58:20.587Z,101243.69
2022-07-31T14:00:54.379Z,101241.88
2022-07-31T14:03:24.539Z,101241.94
2022-07-31T14:05:56.135Z,101241.09
2022-07-31T14:08:33.248Z,101246.47
2022-07-31T14:11:16.289Z,101238.41
2022-07-31T14:13:46.741Z,101240.22
2022-07-31T14:16:19.480Z,101238.44
2022-07-31T14:18:49.482Z,101231.28
2022-07-31T14:21:19.215Z,101236.63
2022-07-31T14:23:49.452Z,101237.50
2022-07-31T14:26:19.209Z,101236.56
2022-07-31T14:28:49.683Z,101239.22
2022-07-31T14:31:22.074Z,101238.34
2022-07-31T14:33:51.782Z,101233.84
2022-07-31T14:36:21.506Z,101238.31
2022-07-31T14:38:51.233Z,101240.13
2022-07-31T14:41:21.000Z,101237.44
2022-07-31T14:43:50.754Z,101234.78
2022-07-31T14:46:23.112Z,101237.47
2022-07-31T14:48:52.916Z,101241.06
2022-07-31T14:51:23.195Z,101242.88
2022-07-31T14:53:52.934Z,101239.31
2022-07-31T14:56:39.666Z,101230.44
2022-07-31T14:59:12.559Z,101236.69
2022-07-31T15:01:45.085Z,101239.34
2022-07-31T15:04:14.876Z,101241.97
2022-07-31T15:06:56.239Z,101234.84
2022-07-31T15:09:34.612Z,101240.16
2022-07-31T15:12:04.348Z,101235.69
2022-07-31T15:14:34.172Z,101238.34
2022-07-31T15:17:06.714Z,101232.09
2022-07-31T15:19:36.724Z,101232.97
2022-07-31T15:22:11.272Z,101231.19
2022-07-31T15:24:49.306Z,101228.47
2022-07-31T15:27:21.822Z,101240.03
2022-07-31T15:30:04.146Z,101234.66
2022-07-31T15:32:41.478Z,101237.34
2022-07-31T15:35:14.314Z,101234.66
2022-07-31T15:37:46.997Z,101240.03
2022-07-31T15:40:17.879Z,101238.28
2022-07-31T15:42:50.024Z,101235.66
2022-07-31T15:45:22.142Z,101240.13
2022-07-31T15:47:54.457Z,101235.69
2022-07-31T15:50:24.280Z,101233.97
2022-07-31T15:52:53.996Z,101238.41
2022-07-31T15:55:23.715Z,101233.97
2022-07-31T15:57:53.507Z,101232.22
2022-07-31T16:00:23.491Z,101229.50
2022-07-31T16:02:55.796Z,101223.28
2022-07-31T16:05:36.210Z,101223.25
2022-07-31T16:08:29.338Z,101219.69
2022-07-31T16:11:00.721Z,101219.72
2022-07-31T16:13:31.547Z,101219.75
2022-07-31T16:16:01.333Z,101218.84
2022-07-31T16:18:33.758Z,101219.72
2022-07-31T16:21:03.501Z,101223.25
2022-07-31T16:23:33.222Z,101222.34
2022-07-31T16:26:02.939Z,101217.88
2022-07-31T16:28:32.731Z,101228.56
2022-07-31T16:31:02.616Z,101218.75
2022-07-31T16:33:35.014Z,101218.75
2022-07-31T16:36:04.728Z,101219.63
2022-07-31T16:38:34.462Z,101225.03
2022-07-31T16:41:04.191Z,101217.91
2022-07-31T16:43:50.021Z,101215.22
2022-07-31T16:46:21.304Z,101223.25
2022-07-31T16:48:53.713Z,101225.03
2022-07-31T16:51:23.501Z,101217.03
2022-07-31T16:54:13.590Z,101215.31
2022-07-31T16:56:42.925Z,101217.13
2022-07-31T16:59:12.853Z,101218.06
2022-07-31T17:02:00.187Z,101210.03
2022-07-31T17:04:33.315Z,101213.63
2022-07-31T17:07:03.711Z,101221.63
2022-07-31T17:09:33.863Z,101213.59
2022-07-31T17:12:04.450Z,101214.47
2022-07-31T17:14:34.403Z,101218.06
2022-07-31T17:17:04.315Z,101220.75
2022-07-31T17:19:45.380Z,101222.50
2022-07-31T17:22:17.732Z,101214.47
2022-07-31T17:24:51.070Z,101219.78
2022-07-31T17:27:22.678Z,101220.75
2022-07-31T17:29:52.427Z,101215.41
2022-07-31T17:32:22.160Z,101218.06
2022-07-31T17:34:54.514Z,101214.50
2022-07-31T17:37:24.751Z,101225.19
2022-07-31T17:39:57.766Z,101223.41
2022-07-31T17:42:28.596Z,101224.28
2022-07-31T17:44:59.067Z,101226.06
2022-07-31T17:47:30.165Z,101227.84
2022-07-31T17:50:02.544Z,101226.03
2022-07-31T17:52:32.273Z,101222.47
2022-07-31T17:55:02.088Z,101226.03
2022-07-31T17:57:33.961Z,101229.59
2022-07-31T18:00:04.099Z,101224.19
2022-07-31T18:02:34.001Z,101222.41
2022-07-31T18:05:06.851Z,101221.50
2022-07-31T18:07:37.831Z,101217.94
2022-07-31T18:10:09.266Z,101227.75
2022-07-31T18:12:57.356Z,101228.63
2022-07-31T18:15:35.791Z,101223.28
2022-07-31T18:18:06.011Z,101230.41
2022-07-31T18:20:38.561Z,101232.19
2022-07-31T18:23:10.153Z,101225.06
2022-07-31T18:25:40.181Z,101230.44
2022-07-31T18:28:09.919Z,101237.59
2022-07-31T18:30:41.903Z,101238.47
2022-07-31T18:33:13.929Z,101237.63
2022-07-31T18:35:46.433Z,101233.13
2022-07-31T18:38:17.183Z,101241.19
2022-07-31T18:40:47.117Z,101238.47
2022-07-31T18:43:16.856Z,101240.31
2022-07-31T18:45:46.588Z,101249.22
2022-07-31T18:48:16.571Z,101243.88
2022-07-31T18:50:59.132Z,101249.25
2022-07-31T18:53:33.861Z,101255.50
2022-07-31T18:56:03.640Z,101253.69
2022-07-31T18:58:33.571Z,101254.59
2022-07-31T19:01:03.412Z,101251.00
2022-07-31T19:03:33.231Z,101260.84
2022-07-31T19:06:05.983Z,101259.94
2022-07-31T19:08:35.749Z,101264.41
2022-07-31T19:11:05.483Z,101272.44
2022-07-31T19:13:35.450Z,101271.56
2022-07-31T19:16:05.174Z,101267.09
2022-07-31T19:18:36.688Z,101276.00
2022-07-31T19:21:23.523Z,101272.44
2022-07-31T19:23:59.048Z,101279.59
2022-07-31T19:26:28.764Z,101285.84
2022-07-31T19:28:58.547Z,101292.97
2022-07-31T19:31:28.297Z,101284.94
2022-07-31T19:33:58.004Z,101289.38
2022-07-31T19:36:30.397Z,101300.06
2022-07-31T19:39:00.275Z,101297.44
2022-07-31T19:41:30.065Z,101304.53
2022-07-31T19:44:02.581Z,101316.13
2022-07-31T19:46:32.370Z,101310.78
2022-07-31T19:49:02.965Z,101316.13
2022-07-31T19:51:35.348Z,101315.25
2022-07-31T19:54:05.087Z,101315.25
2022-07-31T19:56:34.841Z,101323.25
2022-07-31T19:59:05.539Z,101319.69
2022-07-31T20:01:35.363Z,101320.59
2022-07-31T20:04:05.153Z,101325.03
2022-07-31T20:06:39.184Z,101320.59
2022-07-31T20:09:08.940Z,101325.03
2022-07-31T20:11:38.652Z,101326.84
2022-07-31T20:14:08.372Z,101334.84
2022-07-31T20:16:38.393Z,101325.94
2022-07-31T20:19:08.150Z,101333.94
2022-07-31T20:21:40.538Z,101335.72
2022-07-31T20:24:11.640Z,101326.81
2022-07-31T20:26:41.432Z,101337.53
2022-07-31T20:29:11.142Z,101334.84
2022-07-31T20:31:40.849Z,101343.75
2022-07-31T20:34:10.961Z,101345.56
2022-07-31T20:36:43.714Z,101347.31
2022-07-31T20:39:13.418Z,101342.88
2022-07-31T20:41:43.147Z,101341.06
2022-07-31T20:44:12.953Z,101337.53
2022-07-31T20:46:42.726Z,101339.28
2022-07-31T20:49:19.743Z,101339.28
2022-07-31T20:52:08.016Z,101333.94
2022-07-31T20:54:38.087Z,101338.41
2022-07-31T20:57:08.167Z,101341.06
2022-07-31T20:59:37.892Z,101335.75
2022-07-31T21:02:07.942Z,101333.94
2022-07-31T21:04:37.835Z,101343.75
2022-07-31T21:07:10.163Z,101356.22
2022-07-31T21:09:41.103Z,101356.22
2022-07-31T21:12:11.955Z,101366.91
2022-07-31T21:14:41.736Z,101356.22
2022-07-31T21:17:11.483Z,101352.66
2022-07-31T21:19:41.197Z,101363.34
2022-07-31T21:22:13.496Z,101371.38
2022-07-31T21:24:43.825Z,101374.06
2022-07-31T21:27:15.246Z,101371.38
2022-07-31T21:29:45.556Z,101376.69
2022-07-31T21:32:16.408Z,101382.06
2022-07-31T21:34:46.693Z,101381.13
2022-07-31T21:37:20.148Z,101390.91
2022-07-31T21:39:53.326Z,101390.00
2022-07-31T21:42:23.855Z,101390.88
2022-07-31T21:44:55.943Z,101389.97
2022-07-31T21:47:27.233Z,101395.31
2022-07-31T21:50:28.594Z,101395.31
2022-07-31T21:53:01.535Z,101398.00
2022-07-31T21:55:31.244Z,101407.78
2022-07-31T21:58:00.962Z,101408.69
2022-07-31T22:00:30.713Z,101401.53
2022-07-31T22:03:00.455Z,101400.66
2022-07-31T22:05:42.592Z,101403.34
2022-07-31T22:08:16.106Z,101400.63
2022-07-31T22:10:46.181Z,101407.75
2022-07-31T22:13:15.928Z,101413.97
2022-07-31T22:15:52.596Z,101399.72
2022-07-31T22:18:31.032Z,101406.88
2022-07-31T22:21:01.207Z,101414.00
2022-07-31T22:23:34.170Z,101421.13
2022-07-31T22:26:04.548Z,101413.09
2022-07-31T22:28:34.833Z,101424.66
2022-07-31T22:31:05.100Z,101426.44
2022-07-31T22:33:34.973Z,101421.09
2022-07-31T22:36:07.225Z,101412.19
2022-07-31T22:38:39.996Z,101422.88
2022-07-31T22:41:12.320Z,101420.19
2022-07-31T22:44:14.095Z,101423.75
2022-07-31T22:46:33.449Z,101425.53
2022-07-31T22:49:04.880Z,101421.09
2022-07-31T22:51:38.432Z,101426.44
2022-07-31T22:54:11.288Z,101423.81
2022-07-31T22:56:41.041Z,101421.13
2022-07-31T22:59:10.773Z,101425.56
2022-07-31T23:01:40.519Z,101434.44
2022-07-31T23:04:10.231Z,101439.81
2022-07-31T23:06:39.954Z,101438.03
2022-07-31T23:09:12.304Z,101431.78
2022-07-31T23:11:43.150Z,101433.56
2022-07-31T23:14:13.109Z,101441.59
2022-07-31T23:16:42.925Z,101446.88
2022-07-31T23:19:12.824Z,101439.78
2022-07-31T23:21:51.604Z,101440.69
2022-07-31T23:24:23.960Z,101444.22
2022-07-31T23:26:53.690Z,101449.56
2022-07-31T23:29:23.461Z,101449.56
2022-07-31T23:31:53.284Z,101456.69
2022-07-31T23:34:23.009Z,101458.50
2022-07-31T23:36:52.719Z,101467.38
2022-07-31T23:39:25.068Z,101470.91
2022-07-31T23:42:07.653Z,101469.09
2022-07-31T23:44:39.807Z,101464.59
2022-07-31T23:47:10.819Z,101480.59
2022-07-31T23:49:45.688Z,101477.94
2022-07-31T23:52:15.417Z,101470.81
2022-07-31T23:54:47.782Z,101484.13
2022-07-31T23:57:17.569Z,101477.03
2022-07-31T23:59:47.289Z,101483.25
